createdAt,value
2022-09-28T00:02:18.998Z,74.32
2022-09-28T00:05:47.326Z,74.24
2022-09-28T00:09:14.562Z,73.98
2022-09-28T00:12:42.063Z,74.16
2022-09-28T00:16:12.209Z,74.15
2022-09-28T00:19:39.339Z,74.06
2022-09-28T00:23:06.249Z,74.27
2022-09-28T00:26:34.672Z,74.00
2022-09-28T00:30:02.072Z,74.23
2022-09-28T00:33:29.216Z,74.18
2022-09-28T00:36:56.511Z,74.23
2022-09-28T00:40:23.615Z,74.35
2022-09-28T00:43:51.171Z,74.32
2022-09-28T00:47:39.424Z,74.47
2022-09-28T00:51:11.935Z,74.47
2022-09-28T00:54:42.862Z,74.53
2022-09-28T00:58:14.747Z,74.36
2022-09-28T01:01:44.065Z,74.40
2022-09-28T01:05:12.984Z,74.41
2022-09-28T01:08:41.069Z,74.36
2022-09-28T01:12:09.555Z,74.31
2022-09-28T01:15:44.901Z,74.54
2022-09-28T01:19:33.931Z,74.52
2022-09-28T01:23:27.228Z,74.45
2022-09-28T01:27:15.390Z,74.46
2022-09-28T01:30:49.062Z,74.66
2022-09-28T01:34:21.212Z,74.55
2022-09-28T01:37:54.434Z,74.40
2022-09-28T01:41:24.052Z,74.38
2022-09-28T01:44:55.007Z,74.67
2022-09-28T01:48:31.512Z,74.73
2022-09-28T01:52:03.803Z,74.65
2022-09-28T01:55:35.750Z,74.53
2022-09-28T01:59:08.395Z,74.47
2022-09-28T02:02:41.043Z,74.79
2022-09-28T02:06:15.968Z,74.71
2022-09-28T02:09:47.955Z,74.70
2022-09-28T02:13:20.120Z,74.59
2022-09-28T02:16:49.394Z,74.67
2022-09-28T02:20:17.620Z,74.63
2022-09-28T02:23:54.249Z,74.59
2022-09-28T02:27:30.401Z,74.78
2022-09-28T02:30:57.323Z,74.72
2022-09-28T02:34:24.374Z,74.68
2022-09-28T02:37:52.325Z,74.81
2022-09-28T02:41:34.913Z,74.75
2022-09-28T02:45:19.077Z,74.60
2022-09-28T02:49:10.585Z,74.73
2022-09-28T02:53:00.949Z,74.64
2022-09-28T02:56:46.432Z,74.50
2022-09-28T03:00:17.994Z,74.38
2022-09-28T03:03:52.369Z,74.31
2022-09-28T03:07:26.845Z,74.31
2022-09-28T03:11:01.041Z,74.41
2022-09-28T03:14:28.073Z,74.62
2022-09-28T03:17:57.495Z,74.40
2022-09-28T03:21:25.065Z,74.65
2022-09-28T03:24:52.226Z,74.64
2022-09-28T03:28:19.119Z,74.68
2022-09-28T03:31:49.428Z,74.60
2022-09-28T03:35:37.174Z,74.60
2022-09-28T03:39:12.952Z,74.44
2022-09-28T03:42:45.231Z,74.51
2022-09-28T03:46:12.464Z,74.54
2022-09-28T03:49:43.280Z,74.47
2022-09-28T03:53:11.014Z,74.57
2022-09-28T03:56:38.194Z,74.45
2022-09-28T04:00:05.662Z,74.18
2022-09-28T04:03:40.466Z,74.23
2022-09-28T04:07:07.411Z,74.29
2022-09-28T04:10:34.500Z,74.33
2022-09-28T04:14:02.278Z,74.39
2022-09-28T04:17:30.471Z,74.39
2022-09-28T04:21:12.117Z,74.50
2022-09-28T04:25:00.226Z,74.65
2022-09-28T04:28:46.779Z,74.47
2022-09-28T04:32:14.490Z,74.48
2022-09-28T04:35:41.624Z,74.29
2022-09-28T04:39:09.488Z,74.37
2022-09-28T04:42:37.473Z,74.32
2022-09-28T04:46:06.642Z,74.31
2022-09-28T04:49:42.970Z,74.31
2022-09-28T04:53:25.913Z,74.30
2022-09-28T04:56:53.617Z,74.14
2022-09-28T05:00:20.601Z,74.09
2022-09-28T05:04:03.336Z,74.11
2022-09-28T05:07:46.220Z,74.35
2022-09-28T05:11:16.204Z,74.18
2022-09-28T05:14:43.254Z,74.18
2022-09-28T05:18:19.938Z,74.31
2022-09-28T05:22:00.776Z,74.45
2022-09-28T05:25:27.664Z,74.75
2022-09-28T05:29:16.653Z,74.80
2022-09-28T05:33:06.722Z,74.62
2022-09-28T05:36:53.854Z,74.66
2022-09-28T05:40:20.890Z,74.68
2022-09-28T05:43:49.097Z,74.73
2022-09-28T05:47:15.843Z,74.76
2022-09-28T05:50:43.793Z,74.75
2022-09-28T05:54:10.195Z,74.66
2022-09-28T05:57:41.391Z,74.55
2022-09-28T06:01:08.178Z,74.44
2022-09-28T06:04:35.755Z,74.32
2022-09-28T06:08:04.547Z,74.30
2022-09-28T06:11:34.233Z,74.25
2022-09-28T06:15:11.855Z,74.27
2022-09-28T06:18:38.764Z,74.27
2022-09-28T06:23:01.960Z,74.40
2022-09-28T06:26:24.077Z,74.60
2022-09-28T06:29:50.704Z,74.78
2022-09-28T06:38:11.689Z,74.63
2022-09-28T06:41:40.145Z,74.53
2022-09-28T06:45:16.282Z,74.68
2022-09-28T06:48:50.932Z,74.60
2022-09-28T06:52:23.400Z,74.57
2022-09-28T06:56:14.857Z,74.55
2022-09-28T06:59:42.130Z,74.49
2022-09-28T07:03:13.789Z,74.44
2022-09-28T07:07:16.184Z,74.57
2022-09-28T07:11:06.428Z,74.59
2022-09-28T07:15:16.105Z,74.44
2022-09-28T07:18:44.511Z,74.58
2022-09-28T07:22:18.433Z,74.54
2022-09-28T07:25:49.482Z,74.49
2022-09-28T07:29:33.967Z,74.52
2022-09-28T07:33:23.175Z,74.55
2022-09-28T07:36:59.719Z,74.49
2022-09-28T07:40:48.185Z,74.41
2022-09-28T07:44:17.749Z,74.04
2022-09-28T07:47:53.056Z,74.11
2022-09-28T07:51:57.978Z,73.95
2022-09-28T07:55:48.025Z,73.91
2022-09-28T07:59:32.052Z,73.81
2022-09-28T08:03:19.205Z,74.11
2022-09-28T08:06:46.358Z,74.24
2022-09-28T08:15:40.919Z,73.91
2022-09-28T08:19:23.016Z,73.95
2022-09-28T08:22:50.153Z,73.91
2022-09-28T08:26:17.473Z,73.81
2022-09-28T08:29:45.422Z,73.77
2022-09-28T08:33:31.039Z,73.68
2022-09-28T08:37:16.765Z,73.62
2022-09-28T08:41:08.685Z,73.55
2022-09-28T08:44:56.008Z,73.59
2022-09-28T08:49:23.815Z,73.63
2022-09-28T08:53:02.387Z,73.65
2022-09-28T08:56:57.865Z,73.78
2022-09-28T09:00:37.245Z,73.68
2022-09-28T09:04:09.342Z,73.45
2022-09-28T09:08:14.079Z,73.47
2022-09-28T09:11:58.672Z,73.44
2022-09-28T09:19:13.068Z,72.73
2022-09-28T09:23:00.777Z,72.44
2022-09-28T09:26:39.582Z,72.65
2022-09-28T09:30:19.566Z,72.98
2022-09-28T09:34:13.968Z,72.88
2022-09-28T09:38:17.863Z,72.84
2022-09-28T09:42:22.423Z,72.35
2022-09-28T09:46:18.601Z,72.02
2022-09-28T09:50:05.467Z,72.15
2022-09-28T09:53:43.828Z,72.04
2022-09-28T09:57:18.480Z,72.07
2022-09-28T10:01:08.665Z,71.76
2022-09-28T10:04:59.538Z,71.55
2022-09-28T10:08:36.053Z,71.91
2022-09-28T10:12:04.250Z,71.63
2022-09-28T10:15:33.192Z,71.18
2022-09-28T10:19:13.772Z,71.20
2022-09-28T10:23:08.405Z,71.48
2022-09-28T10:26:40.656Z,71.14
2022-09-28T10:30:24.234Z,70.97
2022-09-28T10:33:54.723Z,70.69
2022-09-28T10:37:24.528Z,70.59
2022-09-28T10:41:23.935Z,70.88
2022-09-28T10:45:01.254Z,70.80
2022-09-28T10:48:47.798Z,70.37
2022-09-28T10:52:33.761Z,70.33
2022-09-28T10:56:24.572Z,70.02
2022-09-28T10:59:56.269Z,69.51
2022-09-28T11:03:29.461Z,69.25
2022-09-28T11:07:02.210Z,68.87
2022-09-28T11:10:33.256Z,68.84
2022-09-28T11:14:37.127Z,68.92
2022-09-28T11:18:28.445Z,69.05
2022-09-28T11:21:56.158Z,69.17
2022-09-28T11:25:33.255Z,69.11
2022-09-28T11:29:00.871Z,69.43
2022-09-28T11:32:49.239Z,69.56
2022-09-28T11:36:32.963Z,69.33
2022-09-28T11:40:11.532Z,68.97
2022-09-28T11:43:57.529Z,68.31
2022-09-28T11:47:39.531Z,68.19
2022-09-28T11:51:13.060Z,67.99
2022-09-28T11:54:47.746Z,67.84
2022-09-28T11:58:22.715Z,67.82
2022-09-28T12:01:54.831Z,67.67
2022-09-28T12:05:51.314Z,67.22
2022-09-28T12:09:26.375Z,66.75
2022-09-28T12:13:04.962Z,66.32
2022-09-28T12:20:28.669Z,65.85
2022-09-28T12:23:58.747Z,65.78
2022-09-28T12:27:32.233Z,65.65
2022-09-28T12:31:09.258Z,65.55
2022-09-28T12:34:36.958Z,65.39
2022-09-28T12:38:25.010Z,65.40
2022-09-28T12:42:09.880Z,65.03
2022-09-28T12:46:12.067Z,64.96
2022-09-28T12:54:21.037Z,65.04
2022-09-28T12:58:09.173Z,65.14
2022-09-28T13:02:03.815Z,65.16
2022-09-28T13:06:19.372Z,65.09
2022-09-28T13:10:01.916Z,65.09
2022-09-28T13:13:46.900Z,64.75
2022-09-28T13:17:28.359Z,64.31
2022-09-28T13:21:06.398Z,64.41
2022-09-28T13:24:47.239Z,64.51
2022-09-28T13:28:16.962Z,64.59
2022-09-28T13:31:50.835Z,64.38
2022-09-28T13:35:23.497Z,64.48
2022-09-28T13:38:52.597Z,64.73
2022-09-28T13:42:44.578Z,64.74
2022-09-28T13:46:22.535Z,64.93
2022-09-28T13:50:02.161Z,64.91
2022-09-28T13:53:42.340Z,64.65
2022-09-28T13:57:19.983Z,64.33
2022-09-28T14:00:52.103Z,64.21
2022-09-28T14:04:22.685Z,64.14
2022-09-28T14:08:29.395Z,64.20
2022-09-28T14:12:01.534Z,64.13
2022-09-28T14:15:47.304Z,64.21
2022-09-28T14:19:20.943Z,64.22
2022-09-28T14:23:11.713Z,64.30
2022-09-28T14:27:15.015Z,64.09
2022-09-28T14:30:56.210Z,64.24
2022-09-28T14:34:42.502Z,64.28
2022-09-28T14:38:36.294Z,64.38
2022-09-28T14:42:13.071Z,64.30
2022-09-28T14:45:44.534Z,64.16
2022-09-28T14:49:41.595Z,64.00
2022-09-28T14:53:18.269Z,64.17
2022-09-28T14:56:59.421Z,64.20
2022-09-28T15:00:32.247Z,64.29
2022-09-28T15:04:06.092Z,64.24
2022-09-28T15:07:47.306Z,64.17
2022-09-28T15:11:21.683Z,64.36
2022-09-28T15:14:53.319Z,64.36
2022-09-28T15:18:49.715Z,64.37
2022-09-28T15:22:22.604Z,64.60
2022-09-28T15:25:56.325Z,64.48
2022-09-28T15:29:31.439Z,64.84
2022-09-28T15:33:24.584Z,64.79
2022-09-28T15:36:57.891Z,64.61
2022-09-28T15:40:33.851Z,64.99
2022-09-28T15:44:37.266Z,64.92
2022-09-28T15:48:31.243Z,64.95
2022-09-28T15:52:03.265Z,65.13
2022-09-28T15:55:34.047Z,65.10
2022-09-28T15:59:26.939Z,65.25
2022-09-28T16:03:19.039Z,65.26
2022-09-28T16:06:46.746Z,65.50
2022-09-28T16:10:37.591Z,65.75
2022-09-28T16:14:21.410Z,65.56
2022-09-28T16:17:55.706Z,65.72
2022-09-28T16:21:43.688Z,65.87
2022-09-28T16:25:27.661Z,66.10
2022-09-28T16:28:56.656Z,65.73
2022-09-28T16:32:49.787Z,65.56
2022-09-28T16:36:18.681Z,65.48
2022-09-28T16:39:45.877Z,65.32
2022-09-28T16:43:27.969Z,65.37
2022-09-28T16:47:01.280Z,65.42
2022-09-28T16:50:40.759Z,65.28
2022-09-28T16:54:36.998Z,65.66
2022-09-28T16:58:09.324Z,65.60
2022-09-28T17:01:44.471Z,65.91
2022-09-28T17:05:24.153Z,66.07
2022-09-28T17:08:59.266Z,66.14
2022-09-28T17:12:30.495Z,66.25
2022-09-28T17:16:01.862Z,66.49
2022-09-28T17:19:32.243Z,66.58
2022-09-28T17:23:01.604Z,66.66
2022-09-28T17:26:35.019Z,66.80
2022-09-28T17:30:02.010Z,67.05
2022-09-28T17:33:30.129Z,67.24
2022-09-28T17:36:58.208Z,67.45
2022-09-28T17:40:28.735Z,67.49
2022-09-28T17:43:56.539Z,67.68
2022-09-28T17:47:23.187Z,67.67
2022-09-28T17:50:51.465Z,67.98
2022-09-28T17:54:20.966Z,68.18
2022-09-28T17:57:49.163Z,68.44
2022-09-28T18:01:16.355Z,68.36
2022-09-28T18:04:52.046Z,68.51
2022-09-28T18:08:25.075Z,68.51
2022-09-28T18:12:00.760Z,68.56
2022-09-28T18:15:32.775Z,68.67
2022-09-28T18:19:02.262Z,68.66
2022-09-28T18:22:47.215Z,68.61
2022-09-28T18:26:20.834Z,68.70
2022-09-28T18:29:49.854Z,68.69
2022-09-28T18:33:21.224Z,68.66
2022-09-28T18:36:50.386Z,68.76
2022-09-28T18:40:18.181Z,68.87
2022-09-28T18:43:50.528Z,68.83
2022-09-28T18:47:23.881Z,68.88
2022-09-28T18:50:51.813Z,68.83
2022-09-28T18:54:21.910Z,69.10
2022-09-28T18:57:51.760Z,69.25
2022-09-28T19:01:36.551Z,69.27
2022-09-28T19:05:07.273Z,69.61
2022-09-28T19:08:34.164Z,69.70
2022-09-28T19:12:06.547Z,69.65
2022-09-28T19:15:41.915Z,69.72
2022-09-28T19:19:12.163Z,69.49
2022-09-28T19:22:40.100Z,69.63
2022-09-28T19:26:11.520Z,69.59
2022-09-28T19:29:39.174Z,69.49
2022-09-28T19:33:07.285Z,69.59
2022-09-28T19:36:36.770Z,69.62
2022-09-28T19:40:06.117Z,69.68
2022-09-28T19:43:48.720Z,69.80
2022-09-28T19:47:21.943Z,69.86
2022-09-28T19:51:02.264Z,69.96
2022-09-28T19:54:36.412Z,70.01
2022-09-28T19:58:07.158Z,69.87
2022-09-28T20:01:35.301Z,70.03
2022-09-28T20:05:03.301Z,70.18
2022-09-28T20:08:34.125Z,70.08
2022-09-28T20:12:07.240Z,70.25
2022-09-28T20:15:37.804Z,70.34
2022-09-28T20:19:07.738Z,70.34
2022-09-28T20:22:35.410Z,70.15
2022-09-28T20:26:10.430Z,70.21
2022-09-28T20:29:39.612Z,70.28
2022-09-28T20:33:15.703Z,70.26
2022-09-28T20:36:49.360Z,70.37
2022-09-28T20:40:20.599Z,70.29
2022-09-28T20:43:50.920Z,70.26
2022-09-28T20:47:22.224Z,70.54
2022-09-28T20:51:06.250Z,70.45
2022-09-28T20:54:38.361Z,70.54
2022-09-28T20:58:09.132Z,70.62
2022-09-28T21:01:36.734Z,70.81
2022-09-28T21:05:08.451Z,70.96
2022-09-28T21:08:37.753Z,70.93
2022-09-28T21:12:07.497Z,70.98
2022-09-28T21:15:42.376Z,71.02
2022-09-28T21:19:11.780Z,70.89
2022-09-28T21:22:40.400Z,71.01
2022-09-28T21:26:25.890Z,70.83
2022-09-28T21:29:56.772Z,71.08
2022-09-28T21:33:24.652Z,70.91
2022-09-28T21:36:55.297Z,70.95
2022-09-28T21:40:24.434Z,70.99
2022-09-28T21:43:52.455Z,71.06
2022-09-28T21:47:19.518Z,70.97
2022-09-28T21:50:59.046Z,71.02
2022-09-28T21:54:30.712Z,71.13
2022-09-28T21:58:01.480Z,71.09
2022-09-28T22:01:33.056Z,71.05
2022-09-28T22:05:01.292Z,71.20
2022-09-28T22:08:28.534Z,71.26
2022-09-28T22:11:57.722Z,71.44
2022-09-28T22:15:25.643Z,71.50
2022-09-28T22:18:53.705Z,71.33
2022-09-28T22:22:26.129Z,71.46
2022-09-28T22:26:01.411Z,71.43
2022-09-28T22:29:28.669Z,71.49
2022-09-28T22:32:55.493Z,71.59
2022-09-28T22:36:25.845Z,71.63
2022-09-28T22:39:53.964Z,71.59
2022-09-28T22:43:21.322Z,71.59
2022-09-28T22:47:15.422Z,71.61
2022-09-28T22:50:48.858Z,71.72
2022-09-28T22:54:16.775Z,71.43
2022-09-28T22:57:47.620Z,71.58
2022-09-28T23:01:17.607Z,71.48
2022-09-28T23:04:48.579Z,71.70
2022-09-28T23:08:15.253Z,71.56
2022-09-28T23:11:42.657Z,71.77
2022-09-28T23:15:11.879Z,71.81
2022-09-28T23:18:41.329Z,71.95
2022-09-28T23:22:07.886Z,71.84
2022-09-28T23:25:34.318Z,71.97
2022-09-28T23:29:00.959Z,72.09
2022-09-28T23:32:31.885Z,72.08
2022-09-28T23:36:02.153Z,72.09
2022-09-28T23:39:29.495Z,72.28
2022-09-28T23:42:56.245Z,72.09
2022-09-28T23:46:23.135Z,72.25
2022-09-28T23:49:50.056Z,72.32
2022-09-28T23:53:17.651Z,72.34
2022-09-28T23:56:44.370Z,72.36
